Time;durP1;ratioP1;P1;durP2;ratioP2;P2;SDS_P1;SDS_P2;PMS_P1;PMS_P2;Temp;Humidity;BMP_temperature;BMP_pressure;BME280_temperature;BME280_humidity;BME280_pressure;Samples;Min_cycle;Max_cycle;Signal;HPM_P1;HPM_P2
2021/06/18 00:02:13;;;;;;;3.87;3.53;;;22.10;99.90;;;;;;4879746;29;20789;-78
2021/06/18 00:04:39;;;;;;;3.67;3.38;;;22.00;99.90;;;;;;4908147;29;20489;-78
2021/06/18 00:07:05;;;;;;;4.00;3.70;;;22.00;99.90;;;;;;4879718;28;20413;-78
2021/06/18 00:09:30;;;;;;;3.57;3.33;;;21.90;99.90;;;;;;4880841;28;20445;-78
2021/06/18 00:11:56;;;;;;;3.33;3.13;;;21.90;99.90;;;;;;4896410;29;20441;-78
2021/06/18 00:14:26;;;;;;;3.80;3.50;;;21.70;99.90;;;;;;4893567;29;20901;-78
2021/06/18 00:16:52;;;;;;;4.30;3.90;;;21.60;99.90;;;;;;4901458;29;20425;-78
2021/06/18 00:19:17;;;;;;;4.13;3.73;;;21.60;99.90;;;;;;4896883;29;20408;-79
2021/06/18 00:21:43;;;;;;;3.80;3.47;;;21.60;99.90;;;;;;4885838;29;20408;-78
2021/06/18 00:24:09;;;;;;;5.30;3.50;;;21.50;99.90;;;;;;4902485;29;20406;-78
2021/06/18 00:26:34;;;;;;;4.43;3.78;;;21.50;99.90;;;;;;4940667;29;20406;-78
2021/06/18 00:29:00;;;;;;;3.53;3.22;;;21.30;99.90;;;;;;4897096;29;20476;-78
2021/06/18 00:31:26;;;;;;;3.90;3.60;;;21.30;99.90;;;;;;4895145;29;20942;-78
2021/06/18 00:33:52;;;;;;;3.95;3.60;;;21.30;99.90;;;;;;4896630;28;20481;-79
2021/06/18 00:36:17;;;;;;;4.20;3.43;;;21.20;99.90;;;;;;4909017;29;20436;-78
2021/06/18 00:38:43;;;;;;;5.88;3.95;;;21.10;99.90;;;;;;4916232;29;20912;-78
2021/06/18 00:41:09;;;;;;;3.37;3.07;;;21.10;99.90;;;;;;4911144;29;20409;-79
2021/06/18 00:43:35;;;;;;;4.03;3.72;;;21.10;99.90;;;;;;4894468;29;20407;-78
2021/06/18 00:46:01;;;;;;;4.18;3.70;;;21.00;99.90;;;;;;4900627;29;20935;-78
2021/06/18 00:48:27;;;;;;;4.43;3.60;;;21.00;99.90;;;;;;4912915;29;20463;-78
2021/06/18 00:50:53;;;;;;;3.70;3.40;;;20.90;99.90;;;;;;4899324;29;21082;-78
2021/06/18 00:53:18;;;;;;;3.93;3.63;;;20.90;99.90;;;;;;4903831;29;20412;-78
2021/06/18 00:55:48;;;;;;;3.67;3.38;;;20.80;99.90;;;;;;4906309;29;20493;-78
2021/06/18 00:58:13;;;;;;;3.65;3.35;;;20.70;99.90;;;;;;4896129;29;21118;-79
2021/06/18 01:00:39;;;;;;;3.97;3.65;;;20.60;99.90;;;;;;4911891;28;20434;-78
2021/06/18 01:03:05;;;;;;;3.90;3.55;;;20.60;99.90;;;;;;4916716;28;20411;-78
2021/06/18 01:05:31;;;;;;;3.40;3.20;;;20.50;99.90;;;;;;4917739;29;20460;-79
2021/06/18 01:08:22;;;;;;;4.00;3.45;;;20.50;99.90;;;;;;4909274;29;20418;-78
2021/06/18 01:10:52;;;;;;;4.00;3.60;;;20.40;99.90;;;;;;4912889;29;20414;-78
2021/06/18 01:13:52;;;;;;;4.00;3.67;;;20.30;99.90;;;;;;4910791;29;20419;-78
2021/06/18 01:16:37;;;;;;;4.13;3.73;;;20.20;99.90;;;;;;4907337;29;20418;-78
2021/06/18 01:19:11;;;;;;;3.58;3.28;;;20.20;99.90;;;;;;4907497;29;20428;-78
2021/06/18 01:21:42;;;;;;;4.07;3.78;;;20.10;99.90;;;;;;4924135;29;20418;-77
2021/06/18 01:24:36;;;;;;;4.03;3.63;;;20.10;99.90;;;;;;4921489;29;20423;-78
2021/06/18 01:27:14;;;;;;;4.38;3.67;;;20.10;99.90;;;;;;4929375;29;20421;-77
2021/06/18 01:29:48;;;;;;;3.75;3.45;;;20.00;99.90;;;;;;4913923;29;20799;-78
2021/06/18 01:32:22;;;;;;;3.72;3.42;;;20.00;99.90;;;;;;4907261;29;20491;-77
2021/06/18 01:34:48;;;;;;;4.10;3.80;;;20.00;99.90;;;;;;4912133;29;20417;-77
2021/06/18 01:37:15;;;;;;;4.22;3.92;;;19.90;99.90;;;;;;4894603;29;20411;-77
2021/06/18 01:39:41;;;;;;;4.13;3.72;;;19.90;99.90;;;;;;4896838;29;20501;-77
2021/06/18 01:42:08;;;;;;;3.90;3.60;;;19.80;99.90;;;;;;4899014;29;20435;-78
2021/06/18 01:44:34;;;;;;;4.00;3.70;;;19.80;99.90;;;;;;4911041;29;20453;-79
2021/06/18 01:47:00;;;;;;;4.45;3.85;;;19.70;99.90;;;;;;4900378;29;20581;-78
2021/06/18 01:49:25;;;;;;;4.03;3.72;;;19.70;99.90;;;;;;4918136;29;20420;-78
2021/06/18 01:51:51;;;;;;;3.63;3.33;;;19.60;99.90;;;;;;4882095;29;21029;-78
2021/06/18 01:54:17;;;;;;;3.70;3.40;;;19.50;99.90;;;;;;4899511;29;20407;-78
2021/06/18 01:56:42;;;;;;;3.90;3.60;;;19.40;99.90;;;;;;4892194;29;20469;-78
2021/06/18 01:59:08;;;;;;;3.90;3.57;;;19.30;99.90;;;;;;4887593;29;20404;-77
2021/06/18 02:01:39;;;;;;;3.65;3.35;;;19.20;99.90;;;;;;4904197;29;20908;-78
2021/06/18 02:04:06;;;;;;;4.55;3.75;;;19.30;99.90;;;;;;4913544;29;20417;-78
2021/06/18 02:06:32;;;;;;;4.38;3.97;;;19.30;99.90;;;;;;4897230;28;20402;-78
2021/06/18 02:08:59;;;;;;;4.05;3.65;;;19.20;99.90;;;;;;4905614;29;20443;-78
2021/06/18 02:11:25;;;;;;;4.25;3.85;;;19.20;99.90;;;;;;4893719;29;20531;-77
2021/06/18 02:13:52;;;;;;;4.10;3.80;;;19.20;99.90;;;;;;4909841;29;20409;-78
2021/06/18 02:16:18;;;;;;;4.05;3.75;;;19.10;99.90;;;;;;4910345;29;20410;-78
2021/06/18 02:18:43;;;;;;;3.83;3.45;;;19.10;99.90;;;;;;4912322;29;20394;-77
2021/06/18 02:21:09;;;;;;;4.80;4.20;;;19.00;99.90;;;;;;4904882;29;20488;-77
2021/06/18 02:23:35;;;;;;;3.80;3.50;;;19.00;99.90;;;;;;4879160;29;20980;-77
2021/06/18 02:26:02;;;;;;;3.70;3.40;;;19.00;99.90;;;;;;4908338;29;20427;-79
2021/06/18 02:28:28;;;;;;;3.72;3.42;;;19.00;99.90;;;;;;4894882;29;20410;-78
2021/06/18 02:30:54;;;;;;;3.80;3.50;;;18.90;99.90;;;;;;4894525;29;20410;-79
2021/06/18 02:33:20;;;;;;;4.13;3.83;;;18.90;99.90;;;;;;4891052;29;20922;-79
2021/06/18 02:35:46;;;;;;;3.85;3.55;;;18.80;99.90;;;;;;4900038;29;20410;-78
2021/06/18 02:38:12;;;;;;;3.92;3.63;;;18.80;99.90;;;;;;4912693;29;20423;-78
2021/06/18 02:40:38;;;;;;;3.53;3.22;;;18.80;99.90;;;;;;4892537;29;20409;-78
2021/06/18 02:43:04;;;;;;;4.03;3.73;;;18.80;99.90;;;;;;4907314;29;20475;-79
2021/06/18 02:45:30;;;;;;;4.65;4.10;;;18.80;99.90;;;;;;4894137;29;20421;-79
2021/06/18 02:48:16;;;;;;;3.92;3.63;;;18.80;99.90;;;;;;4908047;29;20476;-79
2021/06/18 02:51:00;;;;;;;4.43;4.03;;;18.70;99.90;;;;;;4898564;29;20510;-77
2021/06/18 02:53:28;;;;;;;3.92;3.60;;;18.60;99.90;;;;;;4898589;29;20848;-79
2021/06/18 02:55:57;;;;;;;4.00;3.70;;;18.60;99.90;;;;;;4926004;29;21688;-78
2021/06/18 02:58:25;;;;;;;4.53;4.13;;;18.60;99.90;;;;;;4900454;29;20411;-77
2021/06/18 03:00:52;;;;;;;3.78;3.47;;;18.60;99.90;;;;;;4916201;29;20396;-78
2021/06/18 03:03:26;;;;;;;5.07;4.10;;;18.50;99.90;;;;;;4926916;29;20437;-79
2021/06/18 03:05:52;;;;;;;4.05;3.65;;;18.40;99.90;;;;;;4911976;29;20469;-77
2021/06/18 03:08:18;;;;;;;5.17;3.83;;;18.30;99.90;;;;;;4896760;29;20406;-78
2021/06/18 03:10:46;;;;;;;4.20;3.90;;;18.40;99.90;;;;;;4897474;29;20923;-78
2021/06/18 03:13:36;;;;;;;4.03;3.70;;;18.30;99.90;;;;;;4909083;29;20472;-77
2021/06/18 03:16:02;;;;;;;4.13;3.83;;;18.30;99.90;;;;;;4902499;29;21152;-78
2021/06/18 03:18:28;;;;;;;4.40;4.00;;;18.30;99.90;;;;;;4910544;28;20410;-79
2021/06/18 03:20:56;;;;;;;3.87;3.53;;;18.30;99.90;;;;;;4896185;29;20516;-78
2021/06/18 03:23:22;;;;;;;3.80;3.50;;;18.30;99.90;;;;;;4909960;29;20946;-79
2021/06/18 03:25:48;;;;;;;5.32;4.10;;;18.30;99.90;;;;;;4904749;29;20412;-78
2021/06/18 03:28:14;;;;;;;4.07;3.67;;;18.40;99.90;;;;;;4906618;29;20409;-77
2021/06/18 03:30:39;;;;;;;4.22;3.92;;;18.40;99.90;;;;;;4887581;29;20411;-79
2021/06/18 03:33:05;;;;;;;4.10;3.70;;;18.50;99.90;;;;;;4896816;28;20465;-78
2021/06/18 03:35:34;;;;;;;4.18;3.75;;;18.50;99.90;;;;;;4886572;29;20972;-77
2021/06/18 03:38:00;;;;;;;4.20;3.85;;;18.60;99.90;;;;;;4923965;29;20492;-77
2021/06/18 03:40:26;;;;;;;3.92;3.63;;;18.70;99.90;;;;;;4909222;29;20415;-77
2021/06/18 03:42:51;;;;;;;4.50;4.10;;;18.70;99.90;;;;;;4889008;28;20409;-77
2021/06/18 03:45:17;;;;;;;5.47;4.95;;;18.80;99.90;;;;;;4897109;29;21120;-77
2021/06/18 03:47:44;;;;;;;4.35;3.95;;;18.80;99.90;;;;;;4912220;29;20413;-77
2021/06/18 03:50:10;;;;;;;4.07;3.75;;;18.90;99.90;;;;;;4894826;29;20562;-77
2021/06/18 03:52:35;;;;;;;4.20;3.80;;;19.00;99.90;;;;;;4892685;29;20470;-77
2021/06/18 03:55:05;;;;;;;3.80;3.50;;;19.10;99.90;;;;;;4901754;29;21215;-76
2021/06/18 03:57:38;;;;;;;4.68;4.00;;;19.20;99.90;;;;;;4897762;29;21076;-77
2021/06/18 04:00:25;;;;;;;6.38;4.15;;;19.20;99.90;;;;;;4833798;29;20587;-77
2021/06/18 04:03:01;;;;;;;4.18;3.85;;;19.40;99.90;;;;;;4836648;29;20480;-77
2021/06/18 04:05:27;;;;;;;4.20;3.80;;;19.50;99.90;;;;;;4922992;29;20398;-75
2021/06/18 04:07:53;;;;;;;5.30;4.28;;;19.50;99.90;;;;;;4911180;28;20394;-76
2021/06/18 04:10:18;;;;;;;3.78;3.40;;;19.70;99.90;;;;;;4927787;29;20422;-75
2021/06/18 04:12:44;;;;;;;4.17;3.77;;;19.80;99.90;;;;;;4911386;28;20500;-78
2021/06/18 04:15:11;;;;;;;4.40;4.00;;;19.90;99.90;;;;;;4945901;28;20500;-77
2021/06/18 04:17:41;;;;;;;4.15;3.75;;;20.00;99.90;;;;;;4936861;29;20417;-78
2021/06/18 04:20:08;;;;;;;4.00;3.60;;;20.10;99.90;;;;;;4910795;29;20532;-78
2021/06/18 04:22:34;;;;;;;4.00;3.63;;;20.20;99.90;;;;;;4896349;29;20403;-78
2021/06/18 04:25:00;;;;;;;4.18;3.78;;;20.40;99.90;;;;;;4898772;29;20450;-79
2021/06/18 04:27:26;;;;;;;3.90;3.60;;;20.50;99.90;;;;;;4913698;29;20433;-79
2021/06/18 04:29:52;;;;;;;4.68;4.28;;;20.60;99.90;;;;;;4919501;29;20402;-78
2021/06/18 04:32:18;;;;;;;4.47;4.07;;;20.70;99.90;;;;;;4940995;29;20445;-79
2021/06/18 04:34:44;;;;;;;4.07;3.67;;;20.80;99.90;;;;;;4897569;29;20522;-79
2021/06/18 04:37:09;;;;;;;4.07;3.78;;;20.90;99.90;;;;;;4895451;29;20422;-79
2021/06/18 04:39:35;;;;;;;4.23;3.83;;;21.10;99.90;;;;;;4900774;29;20409;-79
2021/06/18 04:42:01;;;;;;;4.00;3.30;;;21.20;99.90;;;;;;4929952;29;20773;-79
2021/06/18 04:44:28;;;;;;;3.50;3.20;;;21.30;99.90;;;;;;4897170;29;20478;-81
2021/06/18 04:46:54;;;;;;;3.70;3.40;;;21.50;99.90;;;;;;4898754;28;20413;-78
2021/06/18 04:49:20;;;;;;;3.90;3.50;;;21.70;99.90;;;;;;4899025;29;20403;-78
2021/06/18 04:51:45;;;;;;;3.23;2.90;;;21.90;99.90;;;;;;4873563;29;20908;-79
2021/06/18 04:54:11;;;;;;;3.80;3.40;;;22.10;99.90;;;;;;4895705;29;20413;-79
2021/06/18 04:56:38;;;;;;;3.40;3.00;;;22.20;99.90;;;;;;4900311;28;20402;-78
2021/06/18 04:59:04;;;;;;;3.33;2.88;;;22.40;99.90;;;;;;4898690;29;20407;-77
2021/06/18 05:01:29;;;;;;;3.47;3.17;;;22.60;99.90;;;;;;4911579;29;20773;-79
2021/06/18 05:03:55;;;;;;;3.33;3.03;;;22.80;99.90;;;;;;4898308;29;20488;-76
2021/06/18 05:06:21;;;;;;;3.15;2.95;;;23.00;99.90;;;;;;4912184;29;20398;-76
2021/06/18 05:08:47;;;;;;;2.83;2.63;;;23.10;99.90;;;;;;4900107;29;20552;-76
2021/06/18 05:11:12;;;;;;;2.80;2.60;;;23.30;99.90;;;;;;4899913;29;20892;-76
2021/06/18 05:13:38;;;;;;;2.53;2.33;;;23.40;99.90;;;;;;4901335;29;20422;-76
2021/06/18 05:16:04;;;;;;;2.97;2.78;;;23.60;99.90;;;;;;4910552;28;20480;-76
2021/06/18 05:18:30;;;;;;;3.40;3.10;;;23.80;99.90;;;;;;4902078;29;20546;-77
2021/06/18 05:20:55;;;;;;;3.00;2.80;;;23.90;99.90;;;;;;4889015;29;20424;-77
2021/06/18 05:23:21;;;;;;;3.40;3.10;;;24.00;99.90;;;;;;4896066;29;20406;-77
2021/06/18 05:25:47;;;;;;;2.73;2.53;;;24.10;99.90;;;;;;4906941;29;20429;-77
2021/06/18 05:28:12;;;;;;;4.95;3.20;;;24.30;99.90;;;;;;4902444;28;20421;-77
2021/06/18 05:30:38;;;;;;;2.85;2.65;;;24.40;99.90;;;;;;4878918;29;20489;-76
2021/06/18 05:33:04;;;;;;;3.20;2.80;;;24.50;99.90;;;;;;4895753;29;20511;-77
2021/06/18 05:35:29;;;;;;;3.20;2.90;;;24.70;99.90;;;;;;4924836;28;20470;-77
2021/06/18 05:37:55;;;;;;;3.07;2.87;;;24.80;99.90;;;;;;4895168;29;20934;-76
2021/06/18 05:40:21;;;;;;;3.28;2.97;;;24.90;99.90;;;;;;4913133;29;20845;-77
2021/06/18 05:42:47;;;;;;;2.90;2.70;;;25.10;99.90;;;;;;4918705;28;20477;-77
2021/06/18 05:45:13;;;;;;;3.92;2.72;;;25.30;99.90;;;;;;4912163;29;20399;-77
2021/06/18 05:47:38;;;;;;;2.83;2.63;;;25.30;99.90;;;;;;4897740;29;20401;-77
2021/06/18 05:50:07;;;;;;;2.60;2.40;;;25.50;99.90;;;;;;4912607;29;20414;-77
2021/06/18 05:52:33;;;;;;;3.03;2.63;;;25.70;99.90;;;;;;4913845;29;20501;-76
2021/06/18 05:54:59;;;;;;;4.47;3.00;;;25.80;99.90;;;;;;4896212;28;20903;-77
2021/06/18 05:57:25;;;;;;;3.20;2.80;;;26.00;99.90;;;;;;4898100;29;20418;-76
2021/06/18 05:59:50;;;;;;;3.23;2.80;;;26.00;99.90;;;;;;4926252;29;20461;-76
2021/06/18 06:02:18;;;;;;;2.70;2.50;;;26.10;99.90;;;;;;4901175;29;20504;-76
2021/06/18 06:04:44;;;;;;;3.17;2.88;;;26.20;99.90;;;;;;4899344;29;20501;-76
2021/06/18 06:07:10;;;;;;;3.38;3.00;;;26.30;99.90;;;;;;4900266;29;20494;-76
2021/06/18 06:09:35;;;;;;;5.60;3.00;;;26.40;99.90;;;;;;4923166;29;20510;-78
2021/06/18 06:12:01;;;;;;;2.70;2.40;;;26.50;99.90;;;;;;4874985;29;20475;-77
2021/06/18 06:14:27;;;;;;;2.80;2.60;;;26.60;99.90;;;;;;4910452;29;20999;-78
2021/06/18 06:16:53;;;;;;;3.27;2.73;;;26.70;99.90;;;;;;4882189;29;20495;-77
2021/06/18 06:19:18;;;;;;;2.80;2.60;;;26.80;99.90;;;;;;4913282;29;20460;-77
2021/06/18 06:21:44;;;;;;;2.38;2.17;;;27.00;99.90;;;;;;4889801;29;20425;-77
2021/06/18 06:24:11;;;;;;;7.07;2.63;;;27.20;99.90;;;;;;4913275;29;21145;-77
2021/06/18 06:26:37;;;;;;;2.92;2.63;;;27.30;99.90;;;;;;4889366;29;20503;-76
2021/06/18 06:29:03;;;;;;;2.58;2.38;;;27.50;99.90;;;;;;4899528;29;20434;-77
2021/06/18 06:31:29;;;;;;;2.40;2.20;;;27.70;99.90;;;;;;4914742;29;20832;-76
2021/06/18 06:33:54;;;;;;;2.72;2.50;;;27.80;99.90;;;;;;4909059;29;20447;-77
2021/06/18 06:36:20;;;;;;;2.50;2.30;;;27.90;99.90;;;;;;4893170;29;20419;-77
2021/06/18 06:38:46;;;;;;;3.30;2.27;;;28.10;99.90;;;;;;4910536;29;20913;-78
2021/06/18 06:41:12;;;;;;;2.35;2.15;;;28.20;99.90;;;;;;4913879;29;20413;-76
2021/06/18 06:43:37;;;;;;;3.08;2.35;;;28.40;99.90;;;;;;4927183;29;20907;-77
2021/06/18 06:46:03;;;;;;;3.90;2.20;;;28.60;99.90;;;;;;4911173;29;20516;-78
2021/06/18 06:48:29;;;;;;;2.30;2.10;;;28.80;99.90;;;;;;4896069;29;20434;-78
2021/06/18 06:50:55;;;;;;;2.70;2.50;;;28.80;99.90;;;;;;4879758;29;20466;-77
2021/06/18 06:53:21;;;;;;;2.27;2.07;;;28.80;99.90;;;;;;4907547;28;20421;-78
2021/06/18 06:55:46;;;;;;;2.33;2.13;;;28.90;99.90;;;;;;4884449;29;20417;-77
2021/06/18 06:58:12;;;;;;;2.30;2.10;;;29.00;99.60;;;;;;4912119;29;20409;-76
2021/06/18 07:00:38;;;;;;;2.45;1.83;;;29.10;97.40;;;;;;4912036;28;20414;-77
2021/06/18 07:03:04;;;;;;;2.10;2.00;;;29.20;95.50;;;;;;4911998;29;21021;-78
2021/06/18 07:05:29;;;;;;;2.33;2.00;;;29.20;94.50;;;;;;4894532;29;20412;-78
2021/06/18 07:07:55;;;;;;;1.90;1.80;;;29.30;93.90;;;;;;4910948;29;20429;-76
2021/06/18 07:10:21;;;;;;;2.30;2.10;;;29.30;94.10;;;;;;4900633;29;20426;-76
2021/06/18 07:12:46;;;;;;;5.20;2.10;;;29.60;93.70;;;;;;4920824;29;20410;-80
2021/06/18 07:15:13;;;;;;;2.10;1.90;;;29.80;92.80;;;;;;4914200;28;20435;-78
2021/06/18 07:17:38;;;;;;;2.20;2.00;;;29.80;91.20;;;;;;4917197;28;20398;-77
2021/06/18 07:20:05;;;;;;;3.43;1.93;;;29.80;91.20;;;;;;4042776;29;10000928;-78
2021/06/18 07:22:30;;;;;;;2.07;1.93;;;29.90;92.30;;;;;;4912664;29;20410;-77
2021/06/18 07:24:57;;;;;;;2.20;2.00;;;30.00;91.70;;;;;;4893073;29;20614;-78
2021/06/18 07:27:25;;;;;;;2.33;1.92;;;30.30;88.80;;;;;;4910882;29;20582;-78
2021/06/18 07:29:55;;;;;;;2.05;1.90;;;30.30;89.10;;;;;;4892248;29;20496;-77
2021/06/18 07:32:22;;;;;;;2.00;1.90;;;30.30;90.30;;;;;;4915630;29;20429;-78
2021/06/18 07:34:48;;;;;;;2.40;2.20;;;30.20;87.50;;;;;;4894103;29;20433;-77
2021/06/18 07:37:14;;;;;;;2.17;1.98;;;30.40;88.80;;;;;;4900598;29;20414;-77
2021/06/18 07:39:39;;;;;;;1.97;1.87;;;30.40;86.80;;;;;;4909445;29;20411;-77
2021/06/18 07:42:05;;;;;;;2.60;2.00;;;30.60;85.70;;;;;;4894163;29;20407;-79
2021/06/18 07:44:34;;;;;;;2.78;2.17;;;30.80;87.60;;;;;;4910691;29;20409;-78
2021/06/18 07:47:00;;;;;;;2.20;2.00;;;30.90;86.20;;;;;;4890810;28;20401;-77
2021/06/18 07:49:25;;;;;;;2.00;1.90;;;31.00;86.50;;;;;;4932475;28;20417;-78
2021/06/18 07:51:51;;;;;;;2.37;2.17;;;31.10;84.40;;;;;;4899342;29;20445;-78
2021/06/18 07:54:17;;;;;;;1.93;1.83;;;31.10;85.50;;;;;;4903158;29;20414;-79
2021/06/18 07:56:45;;;;;;;2.25;2.03;;;31.10;82.30;;;;;;4917956;29;20402;-81
2021/06/18 07:59:12;;;;;;;2.10;2.00;;;31.00;82.20;;;;;;4897038;29;20417;-79
2021/06/18 08:01:38;;;;;;;2.20;2.00;;;31.10;84.10;;;;;;4896039;29;20950;-78
2021/06/18 08:04:04;;;;;;;2.30;2.10;;;31.30;82.20;;;;;;4906365;29;20399;-80
2021/06/18 08:06:29;;;;;;;2.40;2.15;;;31.50;81.00;;;;;;4895801;29;20461;-79
2021/06/18 08:08:55;;;;;;;2.05;1.95;;;31.70;82.60;;;;;;4912163;29;20472;-80
2021/06/18 08:11:21;;;;;;;2.43;2.23;;;31.80;76.70;;;;;;4920077;29;20485;-78
2021/06/18 08:13:46;;;;;;;2.20;2.10;;;31.70;77.20;;;;;;4914606;29;21521;-80
2021/06/18 08:16:12;;;;;;;2.58;1.90;;;31.70;77.40;;;;;;4879767;29;20757;-80
2021/06/18 08:18:38;;;;;;;2.72;2.40;;;31.70;75.50;;;;;;4922115;29;20482;-78
2021/06/18 08:21:05;;;;;;;2.15;2.05;;;31.70;76.30;;;;;;4912862;29;20399;-79
2021/06/18 08:23:31;;;;;;;2.10;2.00;;;31.80;77.80;;;;;;4908968;29;20398;-79
2021/06/18 08:25:56;;;;;;;2.20;2.00;;;32.10;80.30;;;;;;4881695;29;20401;-79
2021/06/18 08:28:22;;;;;;;3.10;2.10;;;32.30;76.30;;;;;;4915599;29;20571;-80
2021/06/18 08:30:48;;;;;;;2.20;2.00;;;32.30;75.60;;;;;;4911267;29;20414;-80
2021/06/18 08:33:14;;;;;;;2.38;2.17;;;32.50;76.60;;;;;;4930335;29;20485;-78
2021/06/18 08:35:39;;;;;;;2.20;2.00;;;32.40;72.90;;;;;;4926761;28;20418;-78
2021/06/18 08:38:05;;;;;;;2.08;1.90;;;32.60;73.70;;;;;;4910323;29;20411;-79
2021/06/18 08:40:32;;;;;;;2.35;2.15;;;32.90;76.70;;;;;;4907502;28;20404;-79
2021/06/18 08:42:58;;;;;;;1.98;1.88;;;33.20;72.60;;;;;;4884661;29;20488;-78
2021/06/18 08:45:24;;;;;;;3.05;2.10;;;33.00;69.60;;;;;;4892442;29;20410;-80
2021/06/18 08:47:50;;;;;;;2.07;1.87;;;32.80;69.60;;;;;;4906312;29;20405;-79
2021/06/18 08:50:23;;;;;;;3.17;1.85;;;32.80;66.90;;;;;;4894471;29;20408;-80
2021/06/18 08:52:52;;;;;;;3.03;1.92;;;32.90;68.70;;;;;;4913183;29;20443;-80
2021/06/18 08:55:20;;;;;;;2.15;2.03;;;32.70;66.80;;;;;;4912823;29;20466;-79
2021/06/18 08:57:53;;;;;;;2.30;2.10;;;32.90;67.30;;;;;;4037984;29;10001626;-80
2021/06/18 09:00:22;;;;;;;2.10;1.88;;;32.90;66.70;;;;;;4904865;29;20416;-80
2021/06/18 09:02:48;;;;;;;2.60;2.10;;;33.50;67.30;;;;;;4899611;29;20417;-82
2021/06/18 09:05:14;;;;;;;2.72;2.13;;;33.50;66.40;;;;;;4899375;29;20403;-81
2021/06/18 09:07:50;;;;;;;1.85;1.75;;;33.60;66.70;;;;;;4944302;28;20405;-80
2021/06/18 09:10:29;;;;;;;2.05;1.85;;;34.10;65.00;;;;;;4925701;29;20410;-84
2021/06/18 09:13:13;;;;;;;2.03;1.90;;;34.10;63.40;;;;;;4951263;29;20418;-83
2021/06/18 09:15:54;;;;;;;1.90;1.70;;;33.90;61.60;;;;;;4946526;29;20398;-80
2021/06/18 09:18:31;;;;;;;2.15;1.95;;;34.20;64.80;;;;;;4914995;29;20409;-82
2021/06/18 09:21:03;;;;;;;1.90;1.80;;;34.70;63.00;;;;;;4933358;29;20477;-84
2021/06/18 09:23:33;;;;;;;5.80;2.38;;;34.90;64.80;;;;;;4948551;29;20402;-81
2021/06/18 09:26:17;;;;;;;2.20;2.00;;;35.10;61.60;;;;;;4911109;28;20390;-80
2021/06/18 09:29:03;;;;;;;2.35;1.60;;;35.30;60.70;;;;;;4940474;28;20408;-80
2021/06/18 09:31:31;;;;;;;6.18;2.38;;;35.20;59.30;;;;;;4938798;28;20409;-79
2021/06/18 09:33:57;;;;;;;6.35;2.20;;;35.10;59.20;;;;;;4898881;29;20422;-80
2021/06/18 09:36:23;;;;;;;2.37;2.17;;;35.10;60.10;;;;;;4916884;29;20402;-82
2021/06/18 09:38:56;;;;;;;1.85;1.75;;;35.20;59.70;;;;;;4920424;28;20413;-83
2021/06/18 09:41:34;;;;;;;2.60;2.40;;;35.10;57.10;;;;;;4934998;29;20401;-84
2021/06/18 09:44:00;;;;;;;2.20;2.00;;;34.90;58.70;;;;;;4951088;29;20408;-83
2021/06/18 09:46:45;;;;;;;2.08;1.90;;;35.20;57.90;;;;;;4919858;28;20414;-81
2021/06/18 09:49:30;;;;;;;2.25;2.10;;;35.70;57.00;;;;;;4925665;28;20452;-81
2021/06/18 09:52:00;;;;;;;2.90;2.20;;;36.10;58.00;;;;;;4924170;29;20434;-81
2021/06/18 09:54:33;;;;;;;2.30;1.98;;;36.10;55.60;;;;;;4903412;29;20398;-83
2021/06/18 09:57:12;;;;;;;3.10;2.17;;;35.90;57.60;;;;;;4918528;29;21169;-85
2021/06/18 10:00:04;;;;;;;2.97;2.28;;;35.90;54.40;;;;;;4916733;29;20459;-84
2021/06/18 10:02:45;;;;;;;1.80;1.70;;;36.00;54.50;;;;;;4923748;29;20410;-85
2021/06/18 10:05:13;;;;;;;2.03;1.92;;;36.10;57.50;;;;;;4916704;29;20468;-80
2021/06/18 10:07:38;;;;;;;3.17;2.40;;;36.10;56.90;;;;;;4917920;29;20449;-80
2021/06/18 10:10:09;;;;;;;3.13;2.30;;;36.40;56.70;;;;;;4903615;29;20416;-81
2021/06/18 10:12:35;;;;;;;2.65;1.90;;;36.50;54.60;;;;;;4885592;29;20893;-83
2021/06/18 10:15:07;;;;;;;2.20;2.00;;;36.60;56.40;;;;;;4916824;29;20417;-82
2021/06/18 10:17:34;;;;;;;1.90;1.80;;;36.50;53.00;;;;;;4886768;29;21044;-80
2021/06/18 10:20:00;;;;;;;2.17;2.07;;;36.60;54.10;;;;;;4884014;29;20415;-82
2021/06/18 10:22:26;;;;;;;2.30;2.10;;;36.30;52.00;;;;;;4912931;29;21259;-82
2021/06/18 10:25:02;;;;;;;2.35;2.10;;;36.30;51.60;;;;;;4871653;29;20422;-83
2021/06/18 10:27:38;;;;;;;4.63;2.53;;;36.40;53.20;;;;;;4906800;29;20412;-85
2021/06/18 10:30:23;;;;;;;2.35;2.15;;;36.50;53.00;;;;;;4914438;29;20408;-83
2021/06/18 10:32:49;;;;;;;4.00;2.28;;;36.50;52.00;;;;;;4923809;29;20405;-84
2021/06/18 10:35:47;;;;;;;2.72;2.47;;;36.80;53.10;;;;;;4905294;29;20402;-82
2021/06/18 10:38:26;;;;;;;3.47;2.10;;;36.50;51.00;;;;;;4922556;29;20915;-86
2021/06/18 10:40:52;;;;;;;2.45;2.25;;;36.50;50.70;;;;;;4921663;29;20400;-83
2021/06/18 10:43:17;;;;;;;2.42;2.22;;;36.70;50.30;;;;;;4903008;28;20418;-83
2021/06/18 10:45:58;;;;;;;2.13;1.93;;;37.00;49.50;;;;;;4900937;29;20432;-83
2021/06/18 10:48:55;;;;;;;2.00;1.90;;;37.40;50.70;;;;;;4940983;29;20407;-82
2021/06/18 10:51:30;;;;;;;2.38;2.20;;;38.10;49.50;;;;;;4940213;29;20413;-83
2021/06/18 10:54:03;;;;;;;2.05;1.95;;;38.20;49.70;;;;;;4920123;29;20435;-81
2021/06/18 10:56:44;;;;;;;2.47;2.25;;;38.30;48.30;;;;;;4901735;29;20416;-82
2021/06/18 10:59:17;;;;;;;2.70;2.13;;;38.40;48.20;;;;;;4927463;28;20401;-81
2021/06/18 11:01:43;;;;;;;4.05;2.20;;;38.40;48.10;;;;;;4952411;28;21102;-85
2021/06/18 11:04:09;;;;;;;2.30;2.00;;;38.80;47.60;;;;;;4916671;29;20481;-85
2021/06/18 11:06:49;;;;;;;2.22;2.03;;;39.10;49.60;;;;;;4901621;29;20436;-82
2021/06/18 11:09:41;;;;;;;3.67;1.92;;;38.50;44.30;;;;;;4896331;29;20410;-83
2021/06/18 11:12:29;;;;;;;2.67;2.30;;;38.50;46.50;;;;;;4913240;29;21196;-80
2021/06/18 11:14:55;;;;;;;2.00;1.80;;;38.20;43.90;;;;;;4917702;29;21230;-82
2021/06/18 11:17:52;;;;;;;2.43;2.10;;;38.30;44.50;;;;;;4919138;29;20417;-80
2021/06/18 11:20:20;;;;;;;2.80;2.10;;;38.30;45.10;;;;;;4929301;29;20406;-80
2021/06/18 11:23:16;;;;;;;2.10;2.00;;;38.30;43.20;;;;;;4905625;29;20739;-80
2021/06/18 11:25:45;;;;;;;3.22;2.05;;;38.30;45.50;;;;;;4932865;29;20409;-82
2021/06/18 11:28:24;;;;;;;2.40;2.20;;;38.40;44.80;;;;;;4922540;29;21191;-84
2021/06/18 11:31:21;;;;;;;4.20;2.00;;;38.20;43.70;;;;;;4946091;28;20955;-82
2021/06/18 11:33:50;;;;;;;1.80;1.70;;;38.00;43.60;;;;;;4913228;29;20410;-80
2021/06/18 11:36:22;;;;;;;1.80;1.70;;;38.10;44.70;;;;;;4923128;28;20967;-81
2021/06/18 11:38:49;;;;;;;1.92;1.83;;;38.40;44.40;;;;;;4925749;29;20938;-79
2021/06/18 11:41:24;;;;;;;1.85;1.75;;;39.00;44.70;;;;;;4914605;29;20461;-79
2021/06/18 11:43:52;;;;;;;2.03;1.90;;;39.40;42.80;;;;;;4913038;29;20856;-80
2021/06/18 11:46:30;;;;;;;1.86;1.76;;;39.40;42.80;;;;;;4414690;28;10001740;-78
2021/06/18 11:48:57;;;;;;;1.80;1.70;;;39.00;41.40;;;;;;4040052;28;10001411;-77
2021/06/18 11:51:27;;;;;;;3.17;2.10;;;39.30;42.80;;;;;;4039192;29;10001416;-78
2021/06/18 11:53:53;;;;;;;3.22;2.25;;;39.30;42.00;;;;;;3165107;29;10001913;-80
2021/06/18 11:56:19;;;;;;;2.20;2.00;;;39.50;42.20;;;;;;4917953;29;20415;-78
2021/06/18 11:58:46;;;;;;;2.50;2.30;;;39.60;41.10;;;;;;4925522;29;20414;-78
2021/06/18 12:01:20;;;;;;;1.80;1.70;;;39.80;41.70;;;;;;4907333;29;20402;-78
2021/06/18 12:03:47;;;;;;;2.78;2.08;;;40.10;42.00;;;;;;4910661;28;21003;-77
2021/06/18 12:06:26;;;;;;;2.37;2.10;;;40.10;42.40;;;;;;4903436;28;20400;-80
2021/06/18 12:08:58;;;;;;;2.17;1.95;;;39.50;41.00;;;;;;4901933;29;20877;-77
2021/06/18 12:11:24;;;;;;;2.47;2.00;;;39.10;42.20;;;;;;4912006;29;20410;-78
2021/06/18 12:13:51;;;;;;;2.13;1.97;;;39.20;42.80;;;;;;4883476;28;20423;-79
2021/06/18 12:16:18;;;;;;;2.58;2.38;;;39.40;42.60;;;;;;4922071;28;20408;-79
2021/06/18 12:18:44;;;;;;;2.33;2.13;;;39.30;41.70;;;;;;4927377;29;20464;-79
2021/06/18 12:21:12;;;;;;;2.42;2.22;;;39.30;40.50;;;;;;4905492;29;20411;-78
2021/06/18 12:23:38;;;;;;;2.05;1.95;;;39.60;42.00;;;;;;4885573;29;20400;-78
2021/06/18 12:26:03;;;;;;;2.00;1.90;;;40.40;41.30;;;;;;4896826;29;20437;-79
2021/06/18 12:28:29;;;;;;;2.37;2.17;;;40.50;40.70;;;;;;4906275;29;20505;-78
2021/06/18 12:30:58;;;;;;;2.20;2.10;;;40.50;41.10;;;;;;4889397;29;20433;-78
2021/06/18 12:33:24;;;;;;;2.20;1.90;;;40.90;42.00;;;;;;4899588;29;20433;-78
2021/06/18 12:35:50;;;;;;;2.40;2.20;;;40.70;39.10;;;;;;4920766;29;20402;-77
2021/06/18 12:38:16;;;;;;;3.83;2.33;;;40.10;40.10;;;;;;4904762;29;20505;-78
2021/06/18 12:40:46;;;;;;;2.38;2.22;;;40.00;40.00;;;;;;4900056;29;20410;-78
2021/06/18 12:43:13;;;;;;;300.13;40.50;;;40.20;40.10;;;;;;4918633;29;20401;-80
2021/06/18 12:45:46;;;;;;;2.20;1.90;;;40.60;41.10;;;;;;4922425;29;20417;-78
2021/06/18 12:48:15;;;;;;;2.15;1.88;;;40.20;40.80;;;;;;4925744;29;20406;-82
2021/06/18 12:50:49;;;;;;;1.98;1.80;;;40.20;41.30;;;;;;4920666;29;20404;-79
2021/06/18 12:53:41;;;;;;;2.00;1.90;;;40.30;41.40;;;;;;4904208;28;20418;-79
2021/06/18 12:56:13;;;;;;;1.83;1.73;;;40.30;41.70;;;;;;4903885;29;20412;-79